Time;durP1;ratioP1;P1;durP2;ratioP2;P2;SDS_P1;SDS_P2;PMS_P1;PMS_P2;Temp;Humidity;BMP_temperature;BMP_pressure;BME280_temperature;BME280_humidity;BME280_pressure;Samples;Min_cycle;Max_cycle;Signal;HPM_P1;HPM_P2
2021/09/14 00:00:17;;;;;;;24.05;18.80;;;;;;;18.38;100.00;98923.89;1664162;86;21484;-61
2021/09/14 00:02:45;;;;;;;25.50;19.20;;;;;;;18.35;100.00;98920.02;1627565;87;20992;-61
2021/09/14 00:05:13;;;;;;;39.83;21.07;;;;;;;18.34;100.00;98923.16;1690490;84;21003;-61
2021/09/14 00:07:44;;;;;;;29.50;20.10;;;;;;;18.34;100.00;98934.30;1692848;84;21454;-62
2021/09/14 00:10:13;;;;;;;34.50;20.10;;;;;;;18.32;100.00;98933.49;1624844;87;20999;-59
2021/09/14 00:12:44;;;;;;;43.73;21.20;;;;;;;18.30;100.00;98938.03;1687934;84;21261;-62
2021/09/14 00:15:13;;;;;;;23.25;18.25;;;;;;;18.28;100.00;98933.22;1690372;84;20971;-64
2021/09/14 00:17:42;;;;;;;28.85;18.90;;;;;;;18.27;100.00;98932.81;1686562;84;21473;-62
2021/09/14 00:20:12;;;;;;;29.40;19.10;;;;;;;18.28;100.00;98935.88;1663956;85;20988;-61
2021/09/14 00:22:41;;;;;;;26.23;19.35;;;;;;;18.29;100.00;98935.82;1651142;85;21039;-62
2021/09/14 00:25:10;;;;;;;28.27;18.30;;;;;;;18.27;100.00;98925.67;1644481;86;21094;-64
2021/09/14 00:27:39;;;;;;;29.32;20.00;;;;;;;18.27;100.00;98922.12;1658484;84;20884;-63
2021/09/14 00:30:11;;;;;;;27.42;19.50;;;;;;;18.24;100.00;98924.46;1678248;84;20917;-62
2021/09/14 00:32:40;;;;;;;23.52;18.50;;;;;;;18.22;100.00;98923.66;1663455;86;21031;-63
2021/09/14 00:35:09;;;;;;;24.67;18.60;;;;;;;18.20;100.00;98921.05;1672111;84;20904;-63
2021/09/14 00:37:38;;;;;;;26.40;19.70;;;;;;;18.24;100.00;98923.12;1663031;84;21920;-62
2021/09/14 00:40:08;;;;;;;40.12;20.02;;;;;;;18.23;100.00;98928.06;1686472;84;20967;-62
2021/09/14 00:42:36;;;;;;;27.17;19.10;;;;;;;18.21;100.00;98925.92;1678665;84;20948;-62
2021/09/14 00:45:06;;;;;;;25.60;18.95;;;;;;;18.17;100.00;98922.97;1677541;84;21141;-62
2021/09/14 00:47:35;;;;;;;41.98;19.50;;;;;;;18.15;100.00;98920.83;1670833;84;21591;-62
2021/09/14 00:50:06;;;;;;;24.30;17.87;;;;;;;18.13;100.00;98918.22;1678462;84;21092;-62
2021/09/14 00:52:35;;;;;;;25.00;17.85;;;;;;;18.15;100.00;98917.70;1668715;84;21463;-61
2021/09/14 00:55:04;;;;;;;25.57;19.15;;;;;;;18.16;100.00;98920.77;1663777;84;20980;-63
2021/09/14 00:57:34;;;;;;;27.17;18.55;;;;;;;18.17;100.00;98920.30;1655931;84;21467;-63
2021/09/14 01:00:06;;;;;;;28.15;20.02;;;;;;;18.16;100.00;98922.57;1663374;84;20915;-63
2021/09/14 01:02:35;;;;;;;30.50;18.65;;;;;;;18.15;100.00;98924.37;1673148;84;21023;-63
2021/09/14 01:05:05;;;;;;;27.13;18.95;;;;;;;18.17;100.00;98930.98;1657739;84;20940;-63
2021/09/14 01:07:35;;;;;;;25.20;18.52;;;;;;;18.17;100.00;98928.31;1678077;84;20939;-63
2021/09/14 01:10:06;;;;;;;24.40;17.95;;;;;;;18.17;100.00;98925.17;1667118;84;21436;-63
2021/09/14 01:12:36;;;;;;;27.48;18.75;;;;;;;18.15;100.00;98923.03;1668790;84;21449;-63
2021/09/14 01:15:05;;;;;;;26.30;19.17;;;;;;;18.15;100.00;98931.51;1679730;84;21110;-63
2021/09/14 01:17:33;;;;;;;23.85;17.52;;;;;;;18.13;100.00;98926.70;1672140;84;20959;-63
2021/09/14 01:20:03;;;;;;;25.15;17.90;;;;;;;18.13;100.00;98930.23;1670511;85;20941;-64
2021/09/14 01:22:32;;;;;;;26.48;19.05;;;;;;;18.14;100.00;98925.77;1671289;84;20945;-63
2021/09/14 01:25:01;;;;;;;27.67;17.50;;;;;;;18.15;100.00;98932.84;1656146;85;21474;-65
2021/09/14 01:27:30;;;;;;;25.05;18.10;;;;;;;18.14;100.00;98930.64;1659463;85;21089;-63
2021/09/14 01:30:18;;;;;;;24.05;18.07;;;;;;;18.12;100.00;98935.64;1661600;84;21518;-63
2021/09/14 01:32:46;;;;;;;24.52;17.95;;;;;;;18.10;100.00;98926.82;1665667;85;21491;-64
2021/09/14 01:35:19;;;;;;;24.02;17.92;;;;;;;18.10;100.00;98927.69;1677824;84;20953;-65
2021/09/14 01:37:50;;;;;;;24.52;17.87;;;;;;;18.12;100.00;98925.83;1677159;84;21463;-63
2021/09/14 01:40:18;;;;;;;26.73;18.77;;;;;;;18.12;100.00;98933.84;1677069;84;23608;-63
2021/09/14 01:42:48;;;;;;;28.50;18.52;;;;;;;18.12;100.00;98938.30;1677890;84;20975;-63
2021/09/14 01:45:16;;;;;;;26.40;19.57;;;;;;;18.09;100.00;98939.77;1677750;84;20971;-63
2021/09/14 01:47:45;;;;;;;24.80;18.05;;;;;;;18.07;100.00;98945.16;1677884;84;21459;-62
2021/09/14 01:50:15;;;;;;;24.52;18.25;;;;;;;18.08;100.00;98948.23;1657842;85;20963;-63
2021/09/14 01:52:44;;;;;;;23.75;18.10;;;;;;;18.10;100.00;98946.84;1645848;85;21538;-63
2021/09/14 01:55:13;;;;;;;26.93;18.67;;;;;;;18.09;100.00;98947.77;1677686;85;20949;-62
2021/09/14 01:57:42;;;;;;;22.58;17.82;;;;;;;18.08;100.00;98954.91;1663316;84;21007;-63
2021/09/14 02:00:20;;;;;;;22.73;17.23;;;;;;;18.05;100.00;98955.03;1659389;86;21583;-62
2021/09/14 02:03:30;;;;;;;24.77;17.37;;;;;;;18.03;100.00;98958.23;1654572;85;21518;-63
2021/09/14 02:05:35;;;;;;;24.98;18.77;;;;;;;18.03;100.00;98963.56;1644459;86;21431;-63
2021/09/14 02:08:23;;;;;;;26.30;18.40;;;;;;;18.03;100.00;98953.35;1653397;85;20964;-62
2021/09/14 02:30:17;;;;;;;22.17;16.32;;;;;;;17.92;100.00;98952.41;1651706;85;20968;-62
2021/09/14 02:38:34;;;;;;;23.55;17.67;;;;;;;17.92;100.00;98957.28;1666430;85;20956;-62
2021/09/14 02:59:36;;;;;;;22.98;17.77;;;;;;;17.88;100.00;98971.67;1660779;86;21081;-62
2021/09/14 03:02:05;;;;;;;23.67;17.62;;;;;;;17.88;100.00;98973.47;1657788;86;20946;-62
2021/09/14 03:04:34;;;;;;;61.25;19.20;;;;;;;17.87;100.00;98979.73;1659882;85;21446;-63
2021/09/14 03:07:03;;;;;;;26.23;17.40;;;;;;;17.86;100.00;98972.20;1661036;85;20972;-63
2021/09/14 03:09:33;;;;;;;22.73;16.52;;;;;;;17.85;100.00;98977.13;1661305;85;20880;-62
2021/09/14 03:12:02;;;;;;;22.52;17.27;;;;;;;17.85;100.00;98982.47;1664271;85;21487;-64
2021/09/14 03:14:31;;;;;;;25.37;17.50;;;;;;;17.86;100.00;98975.33;1631002;86;20889;-65
2021/09/14 03:17:01;;;;;;;22.90;17.62;;;;;;;17.84;100.00;98979.85;1633166;87;21496;-64
2021/09/14 03:19:31;;;;;;;21.85;16.10;;;;;;;17.83;100.00;98990.13;1645334;85;21415;-64
2021/09/14 03:22:01;;;;;;;32.35;17.52;;;;;;;17.83;100.00;98981.65;1632315;86;20947;-63
2021/09/14 03:24:31;;;;;;;31.02;17.25;;;;;;;17.85;100.00;98994.47;1631981;86;21458;-64
2021/09/14 03:26:59;;;;;;;24.87;17.70;;;;;;;17.86;100.00;98988.67;1655036;85;20872;-65
2021/09/14 03:29:28;;;;;;;26.23;17.85;;;;;;;17.86;100.00;98991.34;1637422;86;20984;-64
2021/09/14 03:31:56;;;;;;;26.80;16.73;;;;;;;17.86;100.00;98990.00;1664729;85;20973;-62
2021/09/14 03:34:25;;;;;;;22.52;17.62;;;;;;;17.86;100.00;98985.53;1592249;88;21543;-62
2021/09/14 03:36:54;;;;;;;25.10;17.07;;;;;;;17.90;100.00;98990.29;1621313;87;21693;-63
2021/09/14 03:39:22;;;;;;;22.67;16.52;;;;;;;17.90;100.00;98992.95;1609674;88;20983;-62
2021/09/14 03:41:52;;;;;;;26.02;17.87;;;;;;;17.91;100.00;98998.70;1582434;88;21512;-64
2021/09/14 03:44:20;;;;;;;26.95;17.00;;;;;;;17.90;100.00;98994.30;1624680;87;21019;-64
2021/09/14 03:46:48;;;;;;;24.90;16.77;;;;;;;17.92;100.00;99003.11;1619148;87;21518;-64
2021/09/14 03:49:17;;;;;;;23.40;16.75;;;;;;;17.95;100.00;99004.33;1637804;86;21082;-65
2021/09/14 03:51:46;;;;;;;21.42;16.60;;;;;;;17.96;100.00;99002.06;1682824;84;20876;-64
2021/09/14 03:54:15;;;;;;;22.13;17.17;;;;;;;17.97;100.00;99005.14;1648179;86;20980;-67
2021/09/14 03:56:44;;;;;;;24.65;17.25;;;;;;;17.96;100.00;99008.73;1645954;86;21043;-60
2021/09/14 03:59:12;;;;;;;22.15;16.57;;;;;;;17.97;100.00;99015.81;1672265;85;20971;-62
2021/09/14 04:01:43;;;;;;;24.50;16.57;;;;;;;17.98;100.00;99013.58;1664574;85;21097;-63
2021/09/14 04:04:21;;;;;;;22.87;16.60;;;;;;;18.01;100.00;99016.14;1660452;86;20867;-63
2021/09/14 04:09:35;;;;;;;21.75;16.70;;;;;;;18.03;100.00;99027.63;1659733;86;21433;-63
2021/09/14 04:12:09;;;;;;;21.50;16.07;;;;;;;18.03;100.00;99031.63;1659017;85;20954;-62
2021/09/14 04:14:39;;;;;;;22.20;15.38;;;;;;;18.04;100.00;99035.16;1659236;86;20910;-63
2021/09/14 04:17:10;;;;;;;20.95;15.78;;;;;;;18.06;100.00;99039.98;1659171;86;21501;-63
2021/09/14 04:19:40;;;;;;;26.87;16.15;;;;;;;18.07;100.00;99043.05;1664559;85;21446;-63
2021/09/14 04:22:09;;;;;;;20.20;17.12;;;;;;;18.06;100.00;99038.18;1665194;85;21490;-63
2021/09/14 04:24:40;;;;;;;21.25;15.48;;;;;;;18.06;100.00;99038.64;1694654;84;20927;-63
2021/09/14 04:27:09;;;;;;;19.98;15.43;;;;;;;18.06;100.00;99039.52;1696186;84;21734;-63
2021/09/14 04:29:39;;;;;;;21.55;15.38;;;;;;;18.08;100.00;99040.33;1696287;84;21493;-63
2021/09/14 04:32:08;;;;;;;21.30;15.85;;;;;;;18.10;100.00;99042.94;1696122;84;20942;-64
2021/09/14 04:34:37;;;;;;;21.75;16.12;;;;;;;18.10;100.00;99045.14;1696312;84;20988;-64
2021/09/14 04:37:05;;;;;;;19.92;15.88;;;;;;;18.10;100.00;99044.27;1696197;84;21442;-63
2021/09/14 04:39:34;;;;;;;21.12;16.00;;;;;;;18.10;100.00;99050.48;1696317;84;21081;-63
2021/09/14 04:42:02;;;;;;;19.12;15.05;;;;;;;18.10;100.00;99053.61;1696143;84;21422;-63
2021/09/14 04:44:30;;;;;;;20.50;15.43;;;;;;;18.13;100.00;99053.50;1696309;84;21007;-63
2021/09/14 04:47:00;;;;;;;21.17;15.90;;;;;;;18.14;100.00;99053.44;1696049;84;21490;-63
2021/09/14 04:49:28;;;;;;;21.10;15.28;;;;;;;18.12;100.00;99052.62;1696330;84;21541;-62
2021/09/14 04:51:57;;;;;;;19.45;13.85;;;;;;;18.14;100.00;99060.11;1674548;84;21809;-63
2021/09/14 04:54:26;;;;;;;18.23;14.15;;;;;;;18.16;100.00;99060.92;1696379;84;21414;-63
2021/09/14 04:56:54;;;;;;;22.40;15.03;;;;;;;18.21;100.00;99070.09;1696074;84;21442;-63
2021/09/14 04:59:23;;;;;;;20.65;15.08;;;;;;;18.24;100.00;99064.63;1681520;84;21037;-62
2021/09/14 05:01:52;;;;;;;21.05;15.30;;;;;;;18.27;100.00;99071.19;1678588;84;21459;-62
2021/09/14 05:04:22;;;;;;;18.27;14.95;;;;;;;18.29;100.00;99076.47;1692306;84;21468;-64
2021/09/14 05:06:51;;;;;;;22.85;15.23;;;;;;;18.30;100.00;99066.20;1684671;84;21458;-64
2021/09/14 05:09:20;;;;;;;21.12;14.73;;;;;;;18.34;100.00;99067.81;1695747;84;21000;-66
2021/09/14 05:11:49;;;;;;;23.65;15.63;;;;;;;18.35;100.00;99071.77;1691658;84;20962;-66
2021/09/14 05:14:20;;;;;;;21.00;15.63;;;;;;;18.36;100.00;99073.50;1695641;84;21514;-66
2021/09/14 05:17:02;;;;;;;19.42;15.43;;;;;;;18.36;100.00;99072.17;1694065;84;21094;-65
2021/09/14 05:19:34;;;;;;;22.30;15.98;;;;;;;18.37;100.00;99086.39;1686220;84;20962;-65
2021/09/14 05:22:04;;;;;;;21.55;15.30;;;;;;;18.35;100.00;99089.59;1657334;85;21522;-66
2021/09/14 05:24:34;;;;;;;23.10;16.32;;;;;;;18.34;100.00;99087.37;1672294;84;21077;-66
2021/09/14 05:27:02;;;;;;;22.32;16.10;;;;;;;18.36;100.00;99081.98;1676987;84;20971;-65
2021/09/14 05:29:30;;;;;;;20.32;15.13;;;;;;;18.37;100.00;99085.92;1680630;84;21481;-66
2021/09/14 05:31:59;;;;;;;18.62;15.70;;;;;;;18.37;100.00;99084.59;1682827;84;20917;-66
2021/09/14 05:34:27;;;;;;;18.85;15.50;;;;;;;18.39;100.00;99089.88;1678650;84;20984;-67
2021/09/14 05:36:55;;;;;;;17.70;14.63;;;;;;;18.39;100.00;99085.41;1686882;85;21033;-64
2021/09/14 05:39:23;;;;;;;18.62;13.88;;;;;;;18.44;100.00;99083.89;1687012;85;20980;-64
2021/09/14 05:41:51;;;;;;;20.72;14.15;;;;;;;18.51;100.00;99086.29;1687142;85;21119;-63
2021/09/14 05:44:21;;;;;;;19.48;14.65;;;;;;;18.59;100.00;99090.45;1686936;84;20965;-63
2021/09/14 05:46:48;;;;;;;18.52;14.50;;;;;;;18.65;100.00;99086.24;1657667;85;21479;-62
2021/09/14 05:49:16;;;;;;;18.35;13.90;;;;;;;18.71;100.00;99089.53;1686693;85;20961;-62
2021/09/14 05:51:44;;;;;;;17.95;13.55;;;;;;;18.77;100.00;99097.77;1686840;84;21633;-66
2021/09/14 05:54:11;;;;;;;17.15;13.15;;;;;;;18.84;100.00;99100.13;1686799;84;21078;-63
2021/09/14 05:56:39;;;;;;;15.38;13.30;;;;;;;18.93;100.00;99104.73;1686957;85;20947;-63
2021/09/14 05:59:10;;;;;;;20.92;14.15;;;;;;;19.00;100.00;99103.55;1686821;82;21525;-64
2021/09/14 06:01:39;;;;;;;22.37;14.25;;;;;;;19.06;100.00;99102.83;1686902;84;20919;-64
2021/09/14 06:04:09;;;;;;;16.75;14.00;;;;;;;19.13;100.00;99102.98;1687176;85;21529;-64
2021/09/14 06:06:38;;;;;;;21.50;14.10;;;;;;;19.22;100.00;99112.42;1687178;84;21870;-64
2021/09/14 06:09:09;;;;;;;16.25;13.60;;;;;;;19.29;100.00;99106.34;1686852;85;21509;-63
2021/09/14 06:11:37;;;;;;;15.38;13.55;;;;;;;19.38;100.00;99103.28;1686818;85;20916;-62
2021/09/14 06:14:05;;;;;;;17.00;13.55;;;;;;;19.49;100.00;99106.40;1646810;85;20899;-64
2021/09/14 06:16:33;;;;;;;17.15;12.75;;;;;;;19.59;100.00;99098.41;1639098;84;20907;-64
2021/09/14 06:19:02;;;;;;;19.17;13.20;;;;;;;19.71;100.00;99097.88;1639579;86;21127;-64
2021/09/14 06:21:37;;;;;;;15.83;11.48;;;;;;;19.83;100.00;99089.77;1684244;84;20885;-64
2021/09/14 06:24:05;;;;;;;13.70;11.50;;;;;;;19.94;100.00;99095.54;1690643;84;21401;-65
2021/09/14 06:26:35;;;;;;;14.10;10.93;;;;;;;20.04;100.00;99094.19;1691105;84;21000;-64
2021/09/14 06:29:02;;;;;;;14.60;10.48;;;;;;;20.14;100.00;99091.95;1671562;85;20930;-64
2021/09/14 06:31:32;;;;;;;14.33;11.35;;;;;;;20.24;100.00;99088.38;1661041;86;20908;-64
2021/09/14 06:34:00;;;;;;;15.43;11.65;;;;;;;20.29;100.00;99091.71;1653715;86;20968;-64
2021/09/14 06:36:28;;;;;;;13.50;11.38;;;;;;;20.32;100.00;99089.76;1663313;86;21446;-63
2021/09/14 06:38:58;;;;;;;16.27;11.80;;;;;;;20.33;100.00;99088.81;1663518;86;20900;-64
2021/09/14 06:41:27;;;;;;;19.02;12.33;;;;;;;20.34;100.00;99089.72;1663117;85;20968;-65
2021/09/14 06:43:56;;;;;;;14.10;11.63;;;;;;;20.32;100.00;99089.76;1662605;85;21768;-65
2021/09/14 06:46:25;;;;;;;11.70;10.13;;;;;;;20.33;100.00;99094.17;1660130;86;21502;-63
2021/09/14 06:49:00;;;;;;;14.68;10.38;;;;;;;20.36;100.00;99094.53;1662756;85;20950;-65
2021/09/14 06:51:29;;;;;;;14.50;9.93;;;;;;;20.43;100.00;99099.56;1663583;85;21493;-65
2021/09/14 06:53:56;;;;;;;13.90;10.82;;;;;;;20.54;100.00;99106.23;1663096;86;20967;-66
2021/09/14 06:56:24;;;;;;;11.12;9.85;;;;;;;20.65;100.00;99101.23;1662681;85;21741;-65
2021/09/14 06:58:54;;;;;;;11.73;10.30;;;;;;;20.80;100.00;99096.94;1662961;84;20934;-66
2021/09/14 07:01:23;;;;;;;13.20;10.23;;;;;;;20.94;100.00;99096.69;1654434;84;20895;-65
2021/09/14 07:03:52;;;;;;;13.45;10.78;;;;;;;21.13;100.00;99096.64;1659102;85;20985;-66
2021/09/14 07:06:22;;;;;;;11.10;9.63;;;;;;;21.29;100.00;99099.02;1660119;85;21554;-65
2021/09/14 07:08:49;;;;;;;15.75;9.40;;;;;;;21.43;100.00;99094.77;1661986;85;21799;-65
2021/09/14 07:11:17;;;;;;;13.50;9.20;;;;;;;21.54;100.00;99095.08;1655592;86;20908;-65
2021/09/14 07:13:46;;;;;;;11.43;9.20;;;;;;;21.60;100.00;99096.11;1662418;85;20934;-66
2021/09/14 07:16:14;;;;;;;14.70;9.85;;;;;;;21.65;100.00;99094.05;1643857;86;21012;-64
2021/09/14 07:18:43;;;;;;;17.05;10.53;;;;;;;21.68;100.00;99089.39;1616138;88;21092;-62
2021/09/14 07:21:11;;;;;;;12.93;10.08;;;;;;;21.72;100.00;99088.75;1630484;87;21114;-62
2021/09/14 07:23:39;;;;;;;15.68;9.75;;;;;;;21.75;100.00;99085.91;1631632;86;20932;-66
2021/09/14 07:26:07;;;;;;;11.83;9.20;;;;;;;21.77;100.00;99097.47;1643087;86;20979;-66
2021/09/14 07:28:35;;;;;;;10.93;9.40;;;;;;;21.81;100.00;99092.33;1655664;86;21019;-67
2021/09/14 07:31:03;;;;;;;14.68;9.40;;;;;;;21.85;100.00;99095.24;1690513;84;20908;-66
2021/09/14 07:33:31;;;;;;;13.75;8.95;;;;;;;21.88;100.00;99090.19;1688599;84;21157;-66
2021/09/14 07:35:58;;;;;;;10.40;9.30;;;;;;;21.91;100.00;99092.23;1681295;84;20897;-67
2021/09/14 07:38:26;;;;;;;11.97;8.65;;;;;;;21.97;100.00;99092.38;1687978;84;20928;-66
2021/09/14 07:40:53;;;;;;;12.28;8.70;;;;;;;22.03;100.00;99093.87;1687076;84;20946;-67
2021/09/14 07:43:21;;;;;;;10.80;8.53;;;;;;;22.10;100.00;99097.99;1678365;84;21432;-66
2021/09/14 07:45:51;;;;;;;10.25;8.35;;;;;;;22.14;100.00;99093.72;1687676;84;20845;-67
2021/09/14 07:48:19;;;;;;;14.07;8.90;;;;;;;22.19;100.00;99095.67;1686995;84;21004;-69
2021/09/14 07:50:46;;;;;;;12.18;8.50;;;;;;;22.23;100.00;99092.34;1672670;84;21588;-66
2021/09/14 07:53:13;;;;;;;20.05;8.43;;;;;;;22.27;100.00;99094.81;1673116;84;21027;-67
2021/09/14 07:55:41;;;;;;;9.68;7.97;;;;;;;22.33;100.00;99100.80;1670881;85;20916;-63
2021/09/14 07:58:11;;;;;;;19.67;8.00;;;;;;;22.38;100.00;99092.02;1684070;84;20907;-64
2021/09/14 08:00:38;;;;;;;7.35;6.42;;;;;;;22.43;100.00;99098.88;1687265;84;21443;-65
2021/09/14 08:03:06;;;;;;;9.38;5.85;;;;;;;22.48;100.00;99093.23;1659303;85;21534;-64
2021/09/14 08:05:37;;;;;;;7.37;5.65;;;;;;;22.52;100.00;99088.95;1660568;86;21003;-63
2021/09/14 08:08:07;;;;;;;10.85;5.78;;;;;;;22.57;100.00;99086.87;1689639;84;20917;-65
2021/09/14 08:10:36;;;;;;;11.05;6.08;;;;;;;22.66;100.00;99087.31;1660603;84;21459;-65
2021/09/14 08:13:05;;;;;;;12.75;6.80;;;;;;;22.77;100.00;99086.25;1653613;84;21028;-64
2021/09/14 08:15:35;;;;;;;7.80;5.60;;;;;;;22.87;100.00;99085.67;1667690;84;21461;-64
2021/09/14 08:18:04;;;;;;;7.05;5.90;;;;;;;22.97;100.00;99083.32;1687919;84;20947;-64
2021/09/14 08:20:33;;;;;;;13.05;6.17;;;;;;;23.07;100.00;99078.27;1684703;84;21493;-65
2021/09/14 08:23:01;;;;;;;7.10;5.40;;;;;;;23.17;100.00;99084.38;1667476;84;21075;-64
2021/09/14 08:25:34;;;;;;;10.38;7.53;;;;;;;23.24;100.00;99080.39;1666339;85;20975;-66
2021/09/14 08:28:02;;;;;;;10.48;6.83;;;;;;;23.33;100.00;99078.98;1650801;85;20971;-64
2021/09/14 08:30:31;;;;;;;8.90;5.58;;;;;;;23.42;100.00;99079.78;1662841;84;20904;-66
2021/09/14 08:32:58;;;;;;;9.53;5.22;;;;;;;23.53;100.00;99077.80;1666696;85;20959;-64
2021/09/14 08:35:27;;;;;;;7.28;5.30;;;;;;;23.61;100.00;99074.19;1667686;85;21017;-61
2021/09/14 08:55:10;;;;;;;9.18;5.03;;;;;;;24.49;100.00;99078.16;1802750;78;23170;-66
2021/09/14 08:57:38;;;;;;;10.15;5.70;;;;;;;24.61;100.00;99078.37;1758239;80;20894;-67
2021/09/14 09:00:07;;;;;;;7.78;4.80;;;;;;;24.76;100.00;99074.67;1758264;80;21155;-65
2021/09/14 09:02:35;;;;;;;4.97;3.83;;;;;;;24.95;100.00;99073.85;1758231;80;21528;-65
2021/09/14 09:05:05;;;;;;;8.45;4.15;;;;;;;25.13;100.00;99072.31;1758289;80;21424;-64
2021/09/14 09:07:35;;;;;;;8.35;3.65;;;;;;;25.30;100.00;99070.69;1758246;80;20953;-65
2021/09/14 09:10:15;;;;;;;12.23;3.75;;;;;;;25.50;100.00;99072.03;1756125;80;20931;-64
2021/09/14 09:12:47;;;;;;;3.90;3.47;;;;;;;25.70;100.00;99072.94;1718392;82;21800;-66
2021/09/14 09:15:29;;;;;;;5.08;3.55;;;;;;;25.88;100.00;99073.00;1718977;81;20899;-70
2021/09/14 09:21:04;;;;;;;6.83;3.87;;;;;;;26.17;100.00;99068.27;1630858;86;21072;-66
2021/09/14 09:23:32;;;;;;;10.18;3.72;;;;;;;26.35;98.59;99060.22;1658099;85;21454;-65
2021/09/14 09:26:08;;;;;;;7.60;3.40;;;;;;;26.46;94.93;99059.45;1659233;84;21787;-66
2021/09/14 09:28:36;;;;;;;6.35;3.80;;;;;;;26.60;93.55;99058.47;1668617;84;20947;-66
2021/09/14 09:31:10;;;;;;;12.53;3.98;;;;;;;26.74;91.64;99058.31;1655549;84;20981;-62
2021/09/14 09:33:38;;;;;;;4.22;3.30;;;;;;;26.86;89.25;99061.95;1653184;85;21533;-65
2021/09/14 09:36:08;;;;;;;8.70;3.47;;;;;;;26.99;85.98;99057.42;1663819;86;21536;-64
2021/09/14 09:38:58;;;;;;;8.90;3.67;;;;;;;27.12;87.81;99064.99;1649462;85;22086;-64
2021/09/14 09:41:23;;;;;;;3.92;3.25;;;;;;;27.26;84.65;99063.45;1661458;84;21004;-62
2021/09/14 09:43:50;;;;;;;6.65;3.52;;;;;;;27.39;78.75;99058.45;1639974;85;21593;-63
2021/09/14 09:46:22;;;;;;;3.27;2.70;;;;;;;27.47;77.70;99055.56;1661888;84;21029;-63
2021/09/14 09:48:49;;;;;;;5.17;3.03;;;;;;;27.60;75.44;99057.70;1665064;84;21592;-63
2021/09/14 09:51:17;;;;;;;5.25;3.17;;;;;;;27.73;73.23;99057.64;1665028;84;21807;-62
2021/09/14 09:53:45;;;;;;;3.95;2.87;;;;;;;27.85;72.42;99054.46;1664363;84;21552;-62
2021/09/14 09:56:12;;;;;;;3.37;2.92;;;;;;;27.97;70.61;99052.66;1663334;84;21095;-65
2021/09/14 09:58:40;;;;;;;4.37;3.20;;;;;;;28.08;68.74;99054.03;1663424;86;21542;-64
2021/09/14 10:01:20;;;;;;;5.17;3.20;;;;;;;28.18;67.23;99058.59;1663771;86;21033;-66
2021/09/14 10:04:13;;;;;;;3.20;2.90;;;;;;;28.29;66.24;99059.62;1662421;84;21556;-66
2021/09/14 10:06:50;;;;;;;7.87;3.15;;;;;;;28.35;64.91;99047.77;1636046;86;20982;-65
2021/09/14 10:09:17;;;;;;;5.15;3.45;;;;;;;28.43;63.02;99049.41;1645997;85;20990;-65
2021/09/14 10:11:56;;;;;;;6.10;3.25;;;;;;;28.48;62.20;99049.03;1647669;85;21040;-65
2021/09/14 10:14:25;;;;;;;4.30;3.45;;;;;;;28.52;61.28;99048.66;1647598;86;21531;-65
2021/09/14 10:16:52;;;;;;;4.10;3.27;;;;;;;28.59;60.58;99047.66;1656199;84;21136;-66
2021/09/14 10:19:31;;;;;;;4.47;3.60;;;;;;;28.68;60.50;99039.26;1658191;85;21024;-66
2021/09/14 10:22:07;;;;;;;4.95;3.90;;;;;;;28.75;60.25;99027.77;1659606;86;21623;-65
2021/09/14 10:24:36;;;;;;;4.17;3.77;;;;;;;28.83;58.97;99034.78;1659097;85;20958;-66
2021/09/14 10:27:13;;;;;;;8.58;4.10;;;;;;;28.94;58.49;99031.73;1660399;85;20961;-65
2021/09/14 10:29:41;;;;;;;4.70;3.50;;;;;;;29.04;58.17;99036.27;1660130;84;21779;-66
2021/09/14 10:32:12;;;;;;;6.22;3.55;;;;;;;29.13;56.90;99038.20;1658158;85;21521;-65
2021/09/14 10:34:51;;;;;;;6.53;3.20;;;;;;;29.20;56.86;99033.12;1653889;86;21094;-65
2021/09/14 10:37:20;;;;;;;5.40;3.50;;;;;;;29.30;56.13;99034.06;1659046;86;21027;-65
2021/09/14 10:39:47;;;;;;;5.35;3.42;;;;;;;29.40;54.99;99033.67;1659072;85;21009;-65
2021/09/14 10:42:19;;;;;;;5.28;3.50;;;;;;;29.45;53.50;99023.80;1659832;85;21529;-65
2021/09/14 10:44:51;;;;;;;6.17;3.67;;;;;;;29.39;52.42;99022.94;1659496;85;21044;-65
2021/09/14 10:47:20;;;;;;;;;;;;;;;29.25;51.91;99027.29;1662344;85;21054;-65
2021/09/14 10:50:00;;;;;;;4.10;3.70;;;;;;;29.03;52.04;99030.96;1638954;86;20113;-65
2021/09/14 10:52:40;;;;;;;3.90;3.00;;;;;;;28.81;52.79;99025.03;1659356;85;21014;-65
2021/09/14 10:55:16;;;;;;;8.03;3.37;;;;;;;28.66;53.74;99027.17;1659459;85;21544;-65
2021/09/14 10:57:47;;;;;;;6.33;3.70;;;;;;;28.61;55.19;99033.47;1657237;86;21089;-65
2021/09/14 11:00:27;;;;;;;6.12;3.27;;;;;;;28.58;55.48;99029.66;1659176;85;21520;-66
2021/09/14 11:03:00;;;;;;;4.65;3.30;;;;;;;28.57;54.56;99023.86;1639603;86;21013;-65
2021/09/14 11:05:33;;;;;;;3.98;3.10;;;;;;;28.59;54.37;99030.52;1659364;85;21037;-65
2021/09/14 11:08:07;;;;;;;4.08;3.02;;;;;;;28.64;54.05;99029.15;1658958;85;21738;-64
2021/09/14 11:10:44;;;;;;;4.40;3.20;;;;;;;28.74;54.06;99027.89;1659241;85;21080;-65
2021/09/14 11:13:24;;;;;;;10.45;3.58;;;;;;;28.79;53.00;99021.59;1659139;86;21501;-64
2021/09/14 11:16:03;;;;;;;8.70;3.57;;;;;;;28.86;53.42;99026.94;1663362;84;21504;-64
2021/09/14 11:18:34;;;;;;;7.00;3.75;;;;;;;28.97;53.91;99027.40;1618055;88;21078;-65
2021/09/14 11:21:08;;;;;;;19.30;4.30;;;;;;;29.10;52.96;99029.45;1614010;87;20993;-65
2021/09/14 11:23:44;;;;;;;13.13;4.35;;;;;;;29.16;52.47;99030.29;1637891;86;21065;-65
2021/09/14 11:26:15;;;;;;;5.97;3.87;;;;;;;29.07;51.37;99025.64;1641539;86;21038;-66
2021/09/14 11:28:58;;;;;;;5.58;3.75;;;;;;;28.89;50.61;99028.53;1637646;86;21050;-65
2021/09/14 11:31:32;;;;;;;4.08;3.55;;;;;;;28.68;49.75;99035.19;1638031;86;21058;-65
2021/09/14 11:34:02;;;;;;;6.22;3.58;;;;;;;28.39;49.38;99035.72;1608847;87;21213;-64
2021/09/14 11:36:31;;;;;;;5.42;3.90;;;;;;;28.12;49.73;99038.75;1629090;86;21021;-65
2021/09/14 11:39:00;;;;;;;4.60;3.70;;;;;;;27.94;50.76;99032.57;1628385;87;21768;-65
2021/09/14 11:41:38;;;;;;;7.05;3.35;;;;;;;27.79;52.26;99027.84;1628508;87;21252;-64
2021/09/14 11:44:07;;;;;;;3.95;2.95;;;;;;;27.73;53.06;99027.83;1625447;87;21931;-64
2021/09/14 11:46:35;;;;;;;3.95;3.25;;;;;;;27.75;54.40;99026.35;1628515;88;21211;-65
2021/09/14 11:49:06;;;;;;;4.42;3.40;;;;;;;27.81;54.95;99024.02;1583862;86;21581;-64
2021/09/14 11:51:40;;;;;;;8.75;3.58;;;;;;;27.91;54.40;99020.13;1625563;86;21552;-65
2021/09/14 11:54:13;;;;;;;4.80;3.20;;;;;;;28.03;55.10;99020.50;1624846;88;21679;-65
2021/09/14 11:56:40;;;;;;;17.32;4.75;;;;;;;28.17;55.32;99005.83;1625313;87;21098;-65
2021/09/14 11:59:17;;;;;;;30.60;5.05;;;;;;;28.35;54.41;99010.29;1625009;87;21189;-69
2021/09/14 12:01:47;;;;;;;9.40;3.58;;;;;;;28.48;52.36;99012.41;1625062;87;20943;-66
2021/09/14 12:04:20;;;;;;;6.83;3.45;;;;;;;28.61;51.33;99008.19;1625069;88;20983;-66
2021/09/14 12:06:54;;;;;;;3.15;2.85;;;;;;;28.72;50.71;98998.66;1609191;87;20939;-65
2021/09/14 12:09:29;;;;;;;5.85;3.27;;;;;;;28.79;49.59;99003.45;1636358;87;20983;-65
2021/09/14 12:12:03;;;;;;;3.20;2.42;;;;;;;28.86;49.29;99002.50;1634907;87;20939;-65
2021/09/14 12:14:33;;;;;;;9.63;3.08;;;;;;;28.90;47.18;99003.11;1634321;87;21000;-66
2021/09/14 12:17:05;;;;;;;4.30;2.80;;;;;;;28.84;46.79;98997.17;1634324;87;20931;-66
2021/09/14 12:19:35;;;;;;;10.63;3.23;;;;;;;28.78;46.73;98999.01;1637683;85;20975;-65
2021/09/14 12:22:06;;;;;;;5.28;3.00;;;;;;;28.70;46.68;98993.36;1657489;85;21539;-66
2021/09/14 12:24:33;;;;;;;4.90;3.05;;;;;;;28.63;46.72;98990.78;1664824;84;21287;-66
2021/09/14 12:27:02;;;;;;;12.35;6.40;;;;;;;28.52;46.42;98993.03;1665279;85;20951;-66
2021/09/14 12:29:31;;;;;;;13.15;7.87;;;;;;;28.44;46.97;99003.65;1664667;85;20995;-66
2021/09/14 12:31:59;;;;;;;9.28;5.42;;;;;;;28.39;47.33;98996.38;1664795;85;21074;-65
2021/09/14 12:34:28;;;;;;;7.72;5.28;;;;;;;28.35;47.07;98997.59;1664742;85;21596;-66
2021/09/14 12:36:56;;;;;;;7.42;4.42;;;;;;;28.29;47.13;98994.52;1666054;85;21139;-65